createdAt,value
2018-09-12T00:01:38.640Z,16.50
2018-09-12T00:04:07.456Z,16.50
2018-09-12T00:06:36.296Z,16.50
2018-09-12T00:09:07.667Z,16.40
2018-09-12T00:11:36.424Z,16.40
2018-09-12T00:14:05.310Z,16.40
2018-09-12T00:16:35.946Z,16.30
2018-09-12T00:19:04.985Z,16.30
2018-09-12T00:21:33.912Z,16.20
2018-09-12T00:24:02.701Z,16.20
2018-09-12T00:26:31.540Z,16.20
2018-09-12T00:29:00.388Z,16.10
2018-09-12T00:31:29.218Z,16.10
2018-09-12T00:34:00.268Z,16.10
2018-09-12T00:36:29.175Z,16.10
2018-09-12T00:38:58.004Z,16.00
2018-09-12T00:41:26.792Z,16.00
2018-09-12T00:43:55.580Z,15.90
2018-09-12T00:46:24.470Z,15.90
2018-09-12T00:48:53.325Z,15.90
2018-09-12T00:51:22.103Z,15.80
2018-09-12T00:53:51.036Z,15.80
2018-09-12T00:56:20.085Z,15.80
2018-09-12T00:58:49.987Z,15.80
2018-09-12T01:01:18.842Z,15.70
2018-09-12T01:03:47.643Z,15.70
2018-09-12T01:06:16.860Z,15.70
2018-09-12T01:08:45.685Z,15.60
2018-09-12T01:11:14.501Z,15.70
2018-09-12T01:13:43.297Z,15.60
2018-09-12T01:16:12.263Z,15.50
2018-09-12T01:18:41.240Z,15.60
2018-09-12T01:21:10.460Z,15.50
2018-09-12T01:23:39.257Z,15.50
2018-09-12T01:26:08.052Z,15.50
2018-09-12T01:28:36.984Z,15.50
2018-09-12T01:31:06.115Z,15.40
2018-09-12T01:33:35.832Z,15.40
2018-09-12T01:36:04.624Z,15.40
2018-09-12T01:38:33.450Z,15.40
2018-09-12T01:41:02.220Z,15.30
2018-09-12T01:43:31.112Z,15.30
2018-09-12T01:45:59.950Z,15.30
2018-09-12T01:48:28.695Z,15.30
2018-09-12T01:50:57.576Z,15.30
2018-09-12T01:53:26.437Z,15.20
2018-09-12T01:55:55.248Z,15.20
2018-09-12T01:58:24.053Z,15.20
2018-09-12T02:00:52.960Z,15.20
2018-09-12T02:03:21.899Z,15.20
2018-09-12T02:05:50.688Z,15.20
2018-09-12T02:08:19.492Z,15.20
2018-09-12T02:10:48.369Z,15.00
2018-09-12T02:13:17.163Z,15.00
2018-09-12T02:15:45.960Z,15.00
2018-09-12T02:18:14.818Z,15.00
2018-09-12T02:20:43.739Z,15.00
2018-09-12T02:23:12.539Z,14.90
2018-09-12T02:25:41.311Z,14.90
2018-09-12T02:28:10.249Z,14.90
2018-09-12T02:30:39.204Z,14.90
2018-09-12T02:33:08.011Z,14.80
2018-09-12T02:35:41.084Z,14.80
2018-09-12T02:38:09.937Z,14.80
2018-09-12T02:40:38.744Z,14.80
2018-09-12T02:43:07.535Z,14.80
2018-09-12T02:45:36.531Z,14.70
2018-09-12T02:48:05.764Z,14.70
2018-09-12T02:50:34.603Z,14.70
2018-09-12T02:53:03.372Z,14.60
2018-09-12T02:55:32.280Z,14.60
2018-09-12T02:58:01.084Z,14.60
2018-09-12T03:00:29.873Z,14.50
2018-09-12T03:02:58.676Z,14.50
2018-09-12T03:05:28.172Z,14.50
2018-09-12T03:07:57.561Z,14.50
2018-09-12T03:10:26.404Z,14.50
2018-09-12T03:12:55.203Z,14.50
2018-09-12T03:15:24.075Z,14.40
2018-09-12T03:17:52.933Z,14.50
2018-09-12T03:20:21.822Z,14.50
2018-09-12T03:22:50.577Z,14.50
2018-09-12T03:25:19.488Z,14.40
2018-09-12T03:27:48.288Z,14.40
2018-09-12T03:30:17.104Z,14.40
2018-09-12T03:32:45.900Z,14.40
2018-09-12T03:35:14.748Z,14.30
2018-09-12T03:37:44.540Z,14.30
2018-09-12T03:40:13.409Z,14.30
2018-09-12T03:42:42.167Z,14.30
2018-09-12T03:45:11.008Z,14.20
2018-09-12T03:47:39.820Z,14.20
2018-09-12T03:50:08.609Z,14.20
2018-09-12T03:52:37.417Z,14.20
2018-09-12T03:55:06.256Z,14.20
2018-09-12T03:57:35.140Z,14.20
2018-09-12T04:00:03.920Z,14.20
2018-09-12T04:02:32.700Z,14.20
2018-09-12T04:05:01.475Z,14.20
2018-09-12T04:07:30.268Z,14.20
2018-09-12T04:09:59.043Z,14.20
2018-09-12T04:12:27.985Z,14.10
2018-09-12T04:14:56.824Z,14.10
2018-09-12T04:17:29.933Z,14.10
2018-09-12T04:19:58.732Z,14.10
2018-09-12T04:22:27.824Z,14.00
2018-09-12T04:24:56.678Z,14.00
2018-09-12T04:27:25.459Z,14.00
2018-09-12T04:29:54.680Z,14.00
2018-09-12T04:32:24.006Z,13.90
2018-09-12T04:34:52.943Z,13.90
2018-09-12T04:37:21.767Z,13.90
2018-09-12T04:39:50.564Z,13.90
2018-09-12T04:42:19.355Z,13.90
2018-09-12T04:44:48.344Z,13.90
2018-09-12T04:47:17.152Z,13.90
2018-09-12T04:49:45.985Z,13.80
2018-09-12T04:52:14.771Z,13.70
2018-09-12T04:54:43.580Z,13.80
2018-09-12T04:57:12.355Z,13.70
2018-09-12T04:59:42.278Z,13.80
2018-09-12T05:02:10.963Z,13.80
2018-09-12T05:04:39.781Z,13.80
2018-09-12T05:07:08.581Z,13.70
2018-09-12T05:09:37.376Z,13.70
2018-09-12T05:12:06.171Z,13.70
2018-09-12T05:14:34.953Z,13.70
2018-09-12T05:17:03.773Z,13.70
2018-09-12T05:19:32.616Z,13.70
2018-09-12T05:22:01.534Z,13.80
2018-09-12T05:24:30.875Z,13.80
2018-09-12T05:27:00.395Z,13.70
2018-09-12T05:29:29.854Z,13.70
2018-09-12T05:31:58.699Z,13.70
2018-09-12T05:34:27.569Z,13.70
2018-09-12T05:36:56.643Z,13.80
2018-09-12T05:39:25.442Z,13.70
2018-09-12T05:41:54.183Z,13.80
2018-09-12T05:44:24.339Z,13.80
2018-09-12T05:46:53.774Z,13.80
2018-09-12T05:49:22.566Z,13.90
2018-09-12T05:51:52.052Z,13.90
2018-09-12T05:54:21.397Z,13.90
2018-09-12T05:56:50.869Z,13.90
2018-09-12T05:59:20.289Z,14.00
2018-09-12T06:01:49.794Z,14.10
2018-09-12T06:04:19.215Z,14.10
2018-09-12T06:06:49.025Z,14.20
2018-09-12T06:09:17.843Z,14.30
2018-09-12T06:11:46.640Z,14.40
2018-09-12T06:14:15.495Z,14.40
2018-09-12T06:16:44.352Z,14.50
2018-09-12T06:19:13.152Z,14.60
2018-09-12T06:21:42.033Z,14.70
2018-09-12T06:24:10.802Z,14.70
2018-09-12T06:26:39.592Z,14.80
2018-09-12T06:29:08.668Z,14.90
2018-09-12T06:31:37.484Z,15.00
2018-09-12T06:34:06.283Z,15.10
2018-09-12T06:36:35.071Z,15.10
2018-09-12T06:39:04.768Z,15.20
2018-09-12T06:41:34.522Z,15.30
2018-09-12T06:44:03.459Z,15.40
2018-09-12T06:46:32.310Z,15.50
2018-09-12T06:49:01.156Z,15.60
2018-09-12T06:51:29.941Z,15.70
2018-09-12T06:53:58.733Z,15.80
2018-09-12T06:56:27.521Z,15.90
2018-09-12T06:58:56.340Z,16.00
2018-09-12T07:01:25.205Z,16.10
2018-09-12T07:03:54.015Z,16.20
2018-09-12T07:06:22.799Z,16.30
2018-09-12T07:08:51.664Z,16.40
2018-09-12T07:11:20.463Z,16.50
2018-09-12T07:13:49.273Z,16.60
2018-09-12T07:16:18.064Z,16.70
2018-09-12T07:18:46.872Z,16.80
2018-09-12T07:21:15.764Z,16.90
2018-09-12T07:23:44.604Z,17.00
2018-09-12T07:26:13.366Z,17.10
2018-09-12T07:28:42.182Z,17.20
2018-09-12T07:31:10.940Z,17.30
2018-09-12T07:33:39.831Z,17.30
2018-09-12T07:36:08.591Z,17.50
2018-09-12T07:38:37.383Z,17.60
2018-09-12T07:41:06.202Z,17.70
2018-09-12T07:43:35.032Z,17.80
2018-09-12T07:46:03.871Z,17.80
2018-09-12T07:48:32.721Z,18.00
2018-09-12T07:51:01.548Z,18.10
2018-09-12T07:53:30.346Z,18.20
2018-09-12T07:55:59.230Z,18.30
2018-09-12T07:58:27.975Z,18.50
2018-09-12T08:00:56.753Z,18.50
2018-09-12T08:03:25.641Z,18.60
2018-09-12T08:05:54.371Z,18.70
2018-09-12T08:08:23.190Z,18.80
2018-09-12T08:10:52.143Z,18.90
2018-09-12T08:13:21.003Z,19.00
2018-09-12T08:15:49.882Z,19.10
2018-09-12T08:18:18.708Z,19.20
2018-09-12T08:20:47.536Z,19.30
2018-09-12T08:23:16.348Z,19.50
2018-09-12T08:25:45.144Z,19.60
2018-09-12T08:28:14.001Z,19.70
2018-09-12T08:30:42.835Z,19.90
2018-09-12T08:33:11.864Z,20.10
2018-09-12T08:35:40.595Z,20.20
2018-09-12T08:38:09.415Z,20.30
2018-09-12T08:40:38.204Z,20.40
2018-09-12T08:43:07.043Z,20.50
2018-09-12T08:45:35.906Z,20.70
2018-09-12T08:48:04.939Z,21.00
2018-09-12T08:50:33.751Z,21.30
2018-09-12T08:53:02.734Z,21.30
2018-09-12T08:55:31.443Z,21.50
2018-09-12T08:58:00.234Z,21.70
2018-09-12T09:00:33.405Z,22.00
2018-09-12T09:03:02.827Z,22.00
2018-09-12T09:05:31.663Z,22.20
2018-09-12T09:08:00.572Z,22.30
2018-09-12T09:10:29.436Z,22.40
2018-09-12T09:12:58.206Z,22.60
2018-09-12T09:15:27.683Z,22.70
2018-09-12T09:17:56.916Z,22.90
2018-09-12T09:20:26.090Z,23.00
2018-09-12T09:22:54.988Z,23.30
2018-09-12T09:25:23.775Z,23.60
2018-09-12T09:27:52.583Z,24.20
2018-09-12T09:30:21.394Z,24.80
2018-09-12T09:32:50.281Z,25.60
2018-09-12T09:35:19.181Z,26.10
2018-09-12T09:37:48.063Z,26.50
2018-09-12T09:40:16.875Z,26.80
2018-09-12T09:42:45.708Z,27.10
2018-09-12T09:45:14.513Z,27.70
2018-09-12T09:47:43.323Z,27.60
2018-09-12T09:50:12.119Z,27.60
2018-09-12T09:52:40.924Z,27.70
2018-09-12T09:55:09.770Z,27.80
2018-09-12T09:57:39.045Z,27.80
2018-09-12T10:00:13.556Z,28.00
2018-09-12T10:02:42.721Z,28.10
2018-09-12T10:05:17.049Z,28.40
2018-09-12T10:07:46.909Z,28.30
2018-09-12T10:10:15.799Z,28.20
2018-09-12T10:12:45.276Z,28.20
2018-09-12T10:15:14.138Z,28.10
2018-09-12T10:17:42.956Z,27.90
2018-09-12T10:20:11.824Z,27.80
2018-09-12T10:22:40.684Z,27.70
2018-09-12T10:25:09.469Z,27.30
2018-09-12T10:27:38.265Z,27.30
2018-09-12T10:30:08.350Z,27.40
2018-09-12T10:32:37.163Z,27.50
2018-09-12T10:35:06.016Z,27.30
2018-09-12T10:37:34.812Z,27.50
2018-09-12T10:40:03.591Z,27.60
2018-09-12T10:42:32.445Z,27.50
2018-09-12T10:45:01.227Z,27.30
2018-09-12T10:47:30.074Z,27.30
2018-09-12T10:49:58.863Z,27.50
2018-09-12T10:52:27.676Z,27.40
2018-09-12T10:54:56.448Z,27.40
2018-09-12T10:57:25.252Z,27.40
2018-09-12T10:59:54.032Z,27.50
2018-09-12T11:02:22.824Z,27.50
2018-09-12T11:04:51.594Z,27.50
2018-09-12T11:07:20.384Z,27.50
2018-09-12T11:09:49.184Z,27.60
2018-09-12T11:12:17.963Z,27.70
2018-09-12T11:14:46.748Z,27.80
2018-09-12T11:17:15.557Z,27.90
2018-09-12T11:19:44.451Z,27.90
2018-09-12T11:22:13.273Z,28.10
2018-09-12T11:24:42.119Z,28.10
2018-09-12T11:27:10.926Z,28.10
2018-09-12T11:29:39.783Z,28.20
2018-09-12T11:32:08.590Z,28.10
2018-09-12T11:34:43.753Z,28.20
2018-09-12T11:37:12.569Z,28.30
2018-09-12T11:39:41.351Z,28.40
2018-09-12T11:42:10.215Z,28.50
2018-09-12T11:44:39.056Z,28.60
2018-09-12T11:47:07.852Z,28.70
2018-09-12T11:49:36.603Z,28.80
2018-09-12T11:52:05.485Z,28.90
2018-09-12T11:54:34.275Z,29.10
2018-09-12T11:57:03.062Z,29.30
2018-09-12T11:59:31.859Z,29.40
2018-09-12T12:02:00.679Z,29.50
2018-09-12T12:04:29.485Z,29.60
2018-09-12T12:06:58.219Z,29.60
2018-09-12T12:09:27.026Z,29.70
2018-09-12T12:11:55.825Z,29.80
2018-09-12T12:14:24.622Z,29.90
2018-09-12T12:16:53.393Z,29.90
2018-09-12T12:19:22.203Z,29.90
2018-09-12T12:21:51.558Z,30.10
2018-09-12T12:24:20.400Z,30.00
2018-09-12T12:26:49.175Z,30.10
2018-09-12T12:29:17.991Z,30.10
2018-09-12T12:31:46.759Z,30.30
2018-09-12T12:34:15.557Z,30.40
2018-09-12T12:36:44.320Z,30.50
2018-09-12T12:39:13.161Z,30.50
2018-09-12T12:41:41.953Z,30.70
2018-09-12T12:44:10.749Z,30.80
2018-09-12T12:46:39.566Z,30.80
2018-09-12T12:49:08.384Z,30.90
2018-09-12T12:51:37.167Z,30.90
2018-09-12T12:54:05.978Z,30.90
2018-09-12T12:56:34.820Z,31.10
2018-09-12T12:59:03.614Z,31.10
2018-09-12T13:01:32.419Z,31.20
2018-09-12T13:04:01.294Z,31.20
2018-09-12T13:06:30.059Z,31.30
2018-09-12T13:08:58.883Z,31.40
2018-09-12T13:11:27.720Z,31.50
2018-09-12T13:13:56.520Z,31.70
2018-09-12T13:16:25.284Z,31.60
2018-09-12T13:18:54.086Z,31.50
2018-09-12T13:21:22.921Z,31.50
2018-09-12T13:23:51.671Z,31.50
2018-09-12T13:26:20.511Z,31.90
2018-09-12T13:28:49.350Z,32.10
2018-09-12T13:31:18.128Z,32.20
2018-09-12T13:33:46.947Z,32.00
2018-09-12T13:36:16.391Z,31.90
2018-09-12T13:38:45.251Z,32.10
2018-09-12T13:41:14.189Z,32.30
2018-09-12T13:43:42.975Z,32.30
2018-09-12T13:46:11.754Z,32.60
2018-09-12T13:48:40.614Z,32.70
2018-09-12T13:51:09.435Z,32.60
2018-09-12T13:53:38.247Z,32.60
2018-09-12T13:56:06.996Z,32.60
2018-09-12T13:58:35.912Z,32.70
2018-09-12T14:01:04.698Z,32.80
2018-09-12T14:03:33.512Z,32.60
2018-09-12T14:06:02.287Z,32.80
2018-09-12T14:08:31.128Z,32.70
2018-09-12T14:10:59.916Z,32.50
2018-09-12T14:13:28.733Z,32.60
2018-09-12T14:15:57.580Z,32.80
2018-09-12T14:18:26.392Z,32.60
2018-09-12T14:20:55.171Z,32.40
2018-09-12T14:23:24.074Z,32.40
2018-09-12T14:25:52.954Z,32.60
2018-09-12T14:28:21.739Z,32.40
2018-09-12T14:30:50.528Z,32.10
2018-09-12T14:33:19.328Z,31.90
2018-09-12T14:35:48.180Z,32.00
2018-09-12T14:38:16.992Z,31.90
2018-09-12T14:40:45.765Z,32.00
2018-09-12T14:43:14.615Z,32.30
2018-09-12T14:45:43.395Z,32.20
2018-09-12T14:48:12.392Z,32.30
2018-09-12T14:50:42.081Z,32.40
2018-09-12T14:53:10.923Z,32.80
2018-09-12T14:55:39.716Z,32.80
2018-09-12T14:58:08.508Z,32.80
2018-09-12T15:00:37.292Z,32.90
2018-09-12T15:03:06.140Z,32.60
2018-09-12T15:05:35.051Z,32.80
2018-09-12T15:08:03.840Z,32.80
2018-09-12T15:10:32.651Z,32.90
2018-09-12T15:13:01.423Z,33.00
2018-09-12T15:15:30.183Z,32.80
2018-09-12T15:17:59.007Z,32.60
2018-09-12T15:20:27.860Z,32.70
2018-09-12T15:22:56.660Z,32.70
2018-09-12T15:25:25.465Z,32.70
2018-09-12T15:27:54.368Z,32.80
2018-09-12T15:32:55.674Z,32.40
2018-09-12T15:35:24.751Z,32.60
2018-09-12T15:37:53.654Z,32.70
2018-09-12T15:40:22.523Z,32.30
2018-09-12T15:42:51.448Z,32.20
2018-09-12T15:45:20.296Z,32.20
2018-09-12T15:47:49.500Z,32.20
2018-09-12T15:50:18.287Z,32.20
2018-09-12T15:52:47.080Z,32.20
2018-09-12T15:55:16.244Z,32.30
2018-09-12T15:57:45.077Z,32.30
2018-09-12T16:00:13.872Z,32.10
2018-09-12T16:02:42.700Z,32.10
2018-09-12T16:05:11.468Z,32.00
2018-09-12T16:07:40.273Z,32.00
2018-09-12T16:10:09.055Z,32.00
2018-09-12T16:15:29.570Z,31.60
2018-09-12T16:17:58.627Z,31.40
2018-09-12T16:20:27.520Z,31.10
2018-09-12T16:22:56.691Z,31.00
2018-09-12T16:25:25.485Z,31.00
2018-09-12T16:27:54.297Z,31.10
2018-09-12T16:30:23.130Z,30.60
2018-09-12T16:32:51.927Z,30.30
2018-09-12T16:35:20.735Z,29.80
2018-09-12T16:37:49.597Z,29.40
2018-09-12T16:40:18.440Z,29.10
2018-09-12T16:42:47.284Z,28.90
2018-09-12T16:45:16.110Z,28.70
2018-09-12T16:47:44.903Z,28.50
2018-09-12T16:50:13.782Z,28.30
2018-09-12T16:52:42.538Z,28.00
2018-09-12T16:55:11.361Z,27.80
2018-09-12T16:57:40.215Z,27.60
2018-09-12T17:00:09.023Z,27.40
2018-09-12T17:02:37.806Z,27.20
2018-09-12T17:05:06.599Z,27.10
2018-09-12T17:07:35.395Z,26.90
2018-09-12T17:10:04.282Z,26.70
2018-09-12T17:12:33.044Z,26.50
2018-09-12T17:15:01.856Z,26.40
2018-09-12T17:17:30.669Z,26.20
2018-09-12T17:19:59.520Z,26.10
2018-09-12T17:22:28.291Z,26.00
2018-09-12T17:24:57.080Z,25.80
2018-09-12T17:27:25.875Z,25.60
2018-09-12T17:29:54.699Z,25.50
2018-09-12T17:32:23.789Z,25.40
2018-09-12T17:34:52.544Z,25.40
2018-09-12T17:37:21.302Z,25.20
2018-09-12T17:39:50.143Z,25.00
2018-09-12T17:42:18.960Z,24.90
2018-09-12T17:44:47.735Z,24.80
2018-09-12T17:47:16.524Z,24.80
2018-09-12T17:49:45.315Z,24.50
2018-09-12T17:52:14.096Z,24.40
2018-09-12T17:54:42.927Z,24.40
2018-09-12T17:57:11.768Z,24.30
2018-09-12T17:59:40.579Z,24.20
2018-09-12T18:02:09.446Z,24.00
2018-09-12T18:04:38.265Z,24.00
2018-09-12T18:07:07.074Z,23.90
2018-09-12T18:09:35.856Z,23.80
2018-09-12T18:12:04.682Z,23.70
2018-09-12T18:14:33.588Z,23.70
2018-09-12T18:17:03.197Z,23.60
2018-09-12T18:19:33.396Z,23.60
2018-09-12T18:22:02.537Z,23.60
2018-09-12T18:24:33.225Z,23.50
2018-09-12T18:27:03.581Z,23.50
2018-09-12T18:29:32.722Z,23.40
2018-09-12T18:32:02.373Z,23.40
2018-09-12T18:34:32.226Z,23.30
2018-09-12T18:37:01.648Z,23.20
2018-09-12T18:39:31.603Z,23.10
2018-09-12T18:42:07.617Z,23.00
2018-09-12T18:44:37.661Z,22.90
2018-09-12T18:47:07.038Z,22.80
2018-09-12T18:49:36.408Z,22.80
2018-09-12T18:52:05.593Z,22.80
2018-09-12T18:54:36.214Z,22.70
2018-09-12T18:57:06.273Z,22.60
2018-09-12T18:59:35.346Z,22.60
2018-09-12T19:02:05.576Z,22.50
2018-09-12T19:04:36.055Z,22.40
2018-09-12T19:07:07.362Z,22.40
2018-09-12T19:09:36.379Z,22.30
2018-09-12T19:12:05.651Z,22.30
2018-09-12T19:14:38.091Z,22.20
2018-09-12T19:17:08.428Z,22.20
2018-09-12T19:19:37.375Z,22.10
2018-09-12T19:22:08.240Z,22.00
2018-09-12T19:24:39.226Z,22.00
2018-09-12T19:27:09.930Z,21.90
2018-09-12T19:29:41.188Z,21.90
2018-09-12T19:32:10.664Z,21.80
2018-09-12T19:34:40.644Z,21.70
2018-09-12T19:37:10.989Z,21.70
2018-09-12T19:39:40.352Z,21.70
2018-09-12T19:42:10.616Z,21.60
2018-09-12T19:44:39.836Z,21.60
2018-09-12T19:47:08.984Z,21.60
2018-09-12T19:49:37.829Z,21.50
2018-09-12T19:52:06.620Z,21.60
2018-09-12T19:54:35.560Z,21.50
2018-09-12T19:57:04.286Z,21.50
2018-09-12T19:59:33.229Z,21.50
2018-09-12T20:02:02.019Z,21.50
2018-09-12T20:04:30.799Z,21.50
2018-09-12T20:06:59.574Z,21.60
2018-09-12T20:09:28.368Z,21.90
2018-09-12T20:11:57.211Z,22.00
2018-09-12T20:14:26.068Z,22.00
2018-09-12T20:16:54.850Z,22.10
2018-09-12T20:19:23.762Z,22.10
2018-09-12T20:21:52.548Z,22.10
2018-09-12T20:24:21.356Z,22.00
2018-09-12T20:26:50.186Z,21.80
2018-09-12T20:29:19.077Z,21.70
2018-09-12T20:31:47.849Z,21.60
2018-09-12T20:34:16.639Z,21.30
2018-09-12T20:36:45.448Z,21.20
2018-09-12T20:39:14.356Z,20.90
2018-09-12T20:41:43.155Z,20.80
2018-09-12T20:44:12.032Z,20.70
2018-09-12T20:46:40.827Z,20.70
2018-09-12T20:49:09.672Z,20.60
2018-09-12T20:51:42.890Z,20.60
2018-09-12T20:56:41.299Z,20.50
2018-09-12T20:59:10.140Z,20.50
2018-09-12T21:01:39.049Z,20.50
2018-09-12T21:04:07.986Z,20.40
2018-09-12T21:06:36.794Z,20.30
2018-09-12T21:09:08.651Z,20.30
2018-09-12T21:11:37.707Z,20.30
2018-09-12T21:14:06.907Z,20.30
2018-09-12T21:16:35.688Z,20.20
2018-09-12T21:19:04.816Z,20.20
2018-09-12T21:21:33.718Z,20.20
2018-09-12T21:24:02.555Z,20.10
2018-09-12T21:26:31.403Z,20.00
2018-09-12T21:29:00.955Z,20.00
2018-09-12T21:31:29.803Z,20.00
2018-09-12T21:33:58.655Z,20.00
2018-09-12T21:36:27.436Z,20.00
2018-09-12T21:38:56.271Z,20.00
2018-09-12T21:41:25.055Z,19.90
2018-09-12T21:43:54.419Z,19.90
2018-09-12T21:46:23.178Z,19.90
2018-09-12T21:48:51.946Z,19.80
2018-09-12T21:51:20.754Z,19.90
2018-09-12T21:53:49.606Z,19.90
2018-09-12T21:56:18.396Z,19.90
2018-09-12T21:58:47.179Z,19.80
2018-09-12T22:01:20.344Z,19.80
2018-09-12T22:03:49.163Z,19.70
2018-09-12T22:06:17.984Z,19.70
2018-09-12T22:08:46.839Z,19.70
2018-09-12T22:11:15.651Z,19.70
2018-09-12T22:13:44.463Z,19.70
2018-09-12T22:16:13.408Z,19.70
2018-09-12T22:18:42.382Z,19.70
2018-09-12T22:21:11.146Z,19.70
2018-09-12T22:23:39.957Z,19.60
2018-09-12T22:26:08.810Z,19.60
2018-09-12T22:28:37.705Z,19.60
2018-09-12T22:31:06.651Z,19.60
2018-09-12T22:33:36.595Z,19.60
2018-09-12T22:36:05.419Z,19.50
2018-09-12T22:38:34.258Z,19.50
2018-09-12T22:41:03.076Z,19.50
2018-09-12T22:43:31.886Z,19.50
2018-09-12T22:46:00.755Z,19.50
2018-09-12T22:48:29.570Z,19.50
2018-09-12T22:50:58.351Z,19.40
2018-09-12T22:53:27.132Z,19.40
2018-09-12T22:55:56.087Z,19.30
2018-09-12T22:58:24.879Z,19.30
2018-09-12T23:00:55.479Z,19.20
2018-09-12T23:03:24.721Z,19.10
2018-09-12T23:05:53.507Z,19.10
2018-09-12T23:08:22.307Z,19.10
2018-09-12T23:10:51.124Z,19.10
2018-09-12T23:13:19.886Z,19.00
2018-09-12T23:15:48.731Z,19.00
2018-09-12T23:18:17.672Z,18.90
2018-09-12T23:20:46.475Z,18.80
2018-09-12T23:23:15.240Z,18.80
2018-09-12T23:25:44.035Z,18.70
2018-09-12T23:28:12.836Z,18.70
2018-09-12T23:30:41.604Z,18.60
2018-09-12T23:33:10.354Z,18.60
2018-09-12T23:35:39.264Z,18.60
2018-09-12T23:38:08.015Z,18.60
2018-09-12T23:40:36.800Z,18.60
2018-09-12T23:43:05.840Z,18.60
2018-09-12T23:45:35.421Z,18.50
2018-09-12T23:48:04.196Z,18.50
2018-09-12T23:50:33.047Z,18.50
2018-09-12T23:53:01.787Z,18.40
2018-09-12T23:55:30.656Z,18.30
2018-09-12T23:57:59.415Z,18.30
